createdAt,value
2023-09-23T00:01:37.377Z,9.67
2023-09-23T00:04:37.899Z,9.20
2023-09-23T00:07:37.181Z,9.33
2023-09-23T00:10:37.199Z,8.13
2023-09-23T00:13:37.216Z,7.93
2023-09-23T00:16:37.397Z,8.27
2023-09-23T00:19:37.426Z,8.67
2023-09-23T00:22:37.095Z,9.33
2023-09-23T00:25:37.230Z,8.33
2023-09-23T00:28:37.224Z,7.60
2023-09-23T00:31:37.536Z,8.53
2023-09-23T00:34:37.352Z,9.07
2023-09-23T00:37:37.297Z,7.67
2023-09-23T00:40:37.161Z,8.00
2023-09-23T00:43:37.401Z,7.47
2023-09-23T00:46:37.405Z,8.80
2023-09-23T00:49:37.315Z,8.27
2023-09-23T00:52:37.234Z,7.20
2023-09-23T00:55:37.109Z,6.93
2023-09-23T00:58:38.657Z,7.80
2023-09-23T01:01:37.427Z,7.93
2023-09-23T01:04:38.444Z,8.20
2023-09-23T01:07:37.077Z,8.07
2023-09-23T01:10:37.345Z,7.60
2023-09-23T01:13:37.155Z,8.60
2023-09-23T01:16:37.494Z,10.47
2023-09-23T01:19:37.656Z,9.13
2023-09-23T01:22:37.091Z,8.27
2023-09-23T01:25:37.201Z,8.87
2023-09-23T01:28:37.131Z,9.53
2023-09-23T01:31:37.522Z,9.00
2023-09-23T01:34:37.391Z,9.87
2023-09-23T01:37:37.218Z,10.93
2023-09-23T01:40:37.328Z,12.00
2023-09-23T01:43:37.411Z,13.33
2023-09-23T01:46:37.746Z,10.53
2023-09-23T01:49:37.213Z,12.07
2023-09-23T01:52:37.225Z,11.40
2023-09-23T01:55:37.198Z,12.40
2023-09-23T01:58:37.579Z,12.27
2023-09-23T02:01:37.947Z,13.00
2023-09-23T02:04:37.592Z,14.13
2023-09-23T02:07:37.172Z,12.80
2023-09-23T02:10:37.221Z,12.80
2023-09-23T02:13:37.183Z,13.40
2023-09-23T02:16:37.208Z,13.60
2023-09-23T02:19:37.330Z,14.73
2023-09-23T02:22:37.170Z,17.93
2023-09-23T02:25:37.189Z,16.40
2023-09-23T02:28:37.238Z,16.33
2023-09-23T02:31:37.503Z,16.87
2023-09-23T02:34:37.208Z,17.73
2023-09-23T02:37:37.157Z,17.53
2023-09-23T02:40:37.145Z,17.00
2023-09-23T02:43:37.198Z,21.27
2023-09-23T02:46:37.628Z,19.20
2023-09-23T02:49:37.487Z,19.67
2023-09-23T02:52:37.304Z,18.53
2023-09-23T02:55:37.598Z,17.27
2023-09-23T02:58:38.118Z,18.27
2023-09-23T03:01:37.462Z,19.73
2023-09-23T03:04:38.024Z,18.47
2023-09-23T03:07:37.456Z,18.93
2023-09-23T03:10:37.604Z,17.73
2023-09-23T03:13:37.415Z,17.13
2023-09-23T03:16:37.229Z,18.47
2023-09-23T03:19:37.947Z,18.20
2023-09-23T03:22:37.184Z,18.27
2023-09-23T03:25:37.200Z,17.73
2023-09-23T03:28:37.368Z,18.13
2023-09-23T03:31:39.661Z,18.60
2023-09-23T03:34:37.215Z,18.13
2023-09-23T03:37:44.179Z,17.67
2023-09-23T03:40:37.182Z,17.53
2023-09-23T03:43:37.309Z,18.20
2023-09-23T03:46:37.493Z,18.33
2023-09-23T03:49:37.537Z,18.40
2023-09-23T03:52:37.352Z,16.67
2023-09-23T03:55:37.076Z,17.80
2023-09-23T03:58:37.158Z,17.40
2023-09-23T04:01:37.399Z,18.80
2023-09-23T04:04:37.277Z,18.00
2023-09-23T04:07:37.131Z,17.73
2023-09-23T04:10:37.282Z,15.27
2023-09-23T04:13:37.323Z,17.87
2023-09-23T04:16:37.249Z,16.73
2023-09-23T04:19:37.882Z,16.00
2023-09-23T04:22:37.573Z,17.47
2023-09-23T04:25:37.153Z,15.67
2023-09-23T04:28:37.273Z,16.20
2023-09-23T04:31:37.315Z,16.07
2023-09-23T04:34:37.407Z,17.33
2023-09-23T04:37:37.137Z,18.40
2023-09-23T04:40:37.421Z,15.93
2023-09-23T04:43:37.236Z,17.20
2023-09-23T04:46:37.361Z,15.87
2023-09-23T04:49:37.407Z,15.40
2023-09-23T04:52:37.304Z,17.60
2023-09-23T04:55:37.315Z,17.07
2023-09-23T04:58:37.078Z,16.53
2023-09-23T05:01:37.452Z,15.60
2023-09-23T05:04:37.410Z,18.87
2023-09-23T05:07:38.052Z,17.27
2023-09-23T05:10:37.173Z,18.93
2023-09-23T05:13:37.356Z,16.73
2023-09-23T05:16:38.145Z,17.07
2023-09-23T05:19:37.706Z,17.07
2023-09-23T05:22:37.140Z,15.53
2023-09-23T05:25:37.540Z,16.87
2023-09-23T05:28:37.424Z,16.27
2023-09-23T05:31:37.372Z,15.07
2023-09-23T05:34:37.164Z,15.00
2023-09-23T05:37:37.172Z,15.20
2023-09-23T05:40:37.178Z,14.93
2023-09-23T05:43:37.315Z,15.27
2023-09-23T05:46:37.271Z,14.27
2023-09-23T05:49:37.377Z,15.40
2023-09-23T05:52:37.175Z,14.07
2023-09-23T05:55:37.241Z,14.60
2023-09-23T05:58:37.231Z,14.73
2023-09-23T06:01:37.833Z,13.60
2023-09-23T06:04:37.831Z,14.40
2023-09-23T06:07:37.298Z,14.07
2023-09-23T06:10:38.138Z,14.40
2023-09-23T06:13:37.326Z,13.73
2023-09-23T06:16:37.413Z,14.33
2023-09-23T06:19:37.478Z,14.13
2023-09-23T06:22:37.260Z,13.00
2023-09-23T06:25:37.330Z,13.20
2023-09-23T06:28:37.248Z,13.13
2023-09-23T06:31:37.757Z,14.13
2023-09-23T06:34:37.283Z,14.67
2023-09-23T06:37:37.094Z,13.40
2023-09-23T06:40:37.280Z,12.20
2023-09-23T06:43:37.064Z,13.87
2023-09-23T06:46:37.432Z,13.80
2023-09-23T06:49:37.237Z,13.40
2023-09-23T06:52:37.269Z,12.47
2023-09-23T06:55:37.413Z,12.33
2023-09-23T06:58:37.181Z,14.00
2023-09-23T07:01:37.384Z,13.47
2023-09-23T07:04:38.071Z,12.60
2023-09-23T07:07:37.154Z,12.60
2023-09-23T07:10:37.333Z,12.53
2023-09-23T07:13:37.253Z,13.00
2023-09-23T07:16:37.405Z,13.67
2023-09-23T07:19:40.637Z,13.20
2023-09-23T07:22:37.209Z,14.20
2023-09-23T07:25:37.234Z,12.87
2023-09-23T07:28:37.298Z,14.73
2023-09-23T07:31:39.556Z,14.07
2023-09-23T07:34:37.694Z,13.33
2023-09-23T07:37:37.199Z,13.93
2023-09-23T07:40:36.976Z,14.33
2023-09-23T07:43:37.019Z,12.87
2023-09-23T07:46:37.153Z,11.80
2023-09-23T07:49:37.948Z,12.08
2023-09-23T07:52:36.984Z,8.27
2023-09-23T07:55:36.988Z,8.00
2023-09-23T07:58:37.040Z,8.00
2023-09-23T08:01:37.086Z,7.87
2023-09-23T08:04:37.634Z,7.40
2023-09-23T08:07:36.982Z,7.27
2023-09-23T08:10:37.123Z,7.47
2023-09-23T08:13:39.431Z,6.13
2023-09-23T08:16:37.389Z,6.07
2023-09-23T08:19:37.053Z,6.13
2023-09-23T08:22:37.015Z,6.93
2023-09-23T08:25:37.021Z,7.00
2023-09-23T08:28:37.068Z,6.67
2023-09-23T08:31:37.073Z,7.40
2023-09-23T08:34:37.842Z,7.33
2023-09-23T08:37:37.003Z,6.80
2023-09-23T08:40:37.139Z,7.13
2023-09-23T08:43:37.070Z,7.00
2023-09-23T08:46:37.327Z,6.73
2023-09-23T08:49:37.634Z,6.93
2023-09-23T08:52:37.008Z,6.80
2023-09-23T08:55:36.991Z,7.87
2023-09-23T08:58:37.088Z,7.67
2023-09-23T09:01:37.229Z,7.67
2023-09-23T09:04:37.153Z,7.00
2023-09-23T09:07:37.236Z,7.00
2023-09-23T09:10:37.308Z,6.60
2023-09-23T09:13:37.162Z,8.00
2023-09-23T09:16:37.104Z,8.00
2023-09-23T09:19:37.087Z,9.00
2023-09-23T09:22:37.027Z,8.33
2023-09-23T09:25:37.009Z,8.67
2023-09-23T09:28:36.994Z,9.13
2023-09-23T09:31:49.440Z,9.33
2023-09-23T09:34:37.267Z,9.13
2023-09-23T09:37:37.118Z,8.27
2023-09-23T09:40:37.064Z,8.33
2023-09-23T09:43:37.856Z,8.33
2023-09-23T09:46:37.094Z,8.00
2023-09-23T09:49:37.544Z,9.93
2023-09-23T09:52:36.987Z,10.73
2023-09-23T09:55:37.028Z,9.87
2023-09-23T09:58:37.154Z,9.27
2023-09-23T10:01:37.590Z,8.80
2023-09-23T10:04:37.897Z,9.53
2023-09-23T10:07:37.059Z,8.67
2023-09-23T10:10:37.273Z,9.53
2023-09-23T10:13:37.297Z,8.93
2023-09-23T10:16:37.214Z,9.00
2023-09-23T10:19:38.241Z,8.40
2023-09-23T10:22:37.063Z,9.00
2023-09-23T10:25:37.339Z,8.67
2023-09-23T10:28:37.130Z,9.27
2023-09-23T10:31:37.458Z,9.07
2023-09-23T10:34:46.103Z,9.13
2023-09-23T10:37:37.201Z,9.13
2023-09-23T10:40:37.364Z,9.27
2023-09-23T10:43:37.278Z,9.13
2023-09-23T10:46:37.279Z,9.20
2023-09-23T10:49:37.671Z,7.47
2023-09-23T10:52:37.188Z,7.87
2023-09-23T10:55:38.703Z,8.07
2023-09-23T10:58:37.244Z,8.00
2023-09-23T11:01:37.289Z,8.20
2023-09-23T11:04:38.487Z,7.93
2023-09-23T11:07:37.144Z,7.33
2023-09-23T11:10:37.246Z,8.00
2023-09-23T11:13:37.355Z,8.00
2023-09-23T11:16:37.309Z,8.53
2023-09-23T11:19:37.906Z,8.20
2023-09-23T11:22:37.131Z,8.20
2023-09-23T11:25:37.247Z,7.27
2023-09-23T11:28:37.400Z,7.20
2023-09-23T11:31:37.253Z,7.00
2023-09-23T11:34:37.276Z,7.80
2023-09-23T11:37:37.282Z,7.27
2023-09-23T11:40:37.474Z,7.00
2023-09-23T11:43:37.209Z,6.93
2023-09-23T11:46:37.359Z,7.00
2023-09-23T11:49:37.396Z,7.47
2023-09-23T11:52:37.426Z,6.73
2023-09-23T11:55:37.395Z,6.87
2023-09-23T11:58:37.238Z,6.87
2023-09-23T12:01:37.322Z,6.60
2023-09-23T12:04:37.986Z,7.07
2023-09-23T12:07:37.271Z,6.73
2023-09-23T12:10:37.199Z,6.27
2023-09-23T12:13:37.759Z,5.67
2023-09-23T12:16:37.824Z,6.07
2023-09-23T12:19:37.603Z,5.27
2023-09-23T12:22:37.102Z,5.27
2023-09-23T12:25:37.346Z,5.13
2023-09-23T12:28:37.199Z,5.00
2023-09-23T12:31:37.255Z,5.27
2023-09-23T12:34:37.444Z,5.47
2023-09-23T12:37:37.175Z,5.60
2023-09-23T12:40:37.212Z,5.40
2023-09-23T12:43:37.127Z,5.73
2023-09-23T12:46:39.869Z,5.67
2023-09-23T12:49:37.701Z,5.60
2023-09-23T12:52:37.084Z,5.00
2023-09-23T12:55:37.213Z,4.87
2023-09-23T12:58:37.124Z,4.73
2023-09-23T13:01:38.810Z,4.00
2023-09-23T13:04:38.082Z,4.00
2023-09-23T13:07:37.264Z,4.60
2023-09-23T13:10:37.248Z,4.00
2023-09-23T13:13:37.165Z,4.67
2023-09-23T13:16:37.717Z,4.80
2023-09-23T13:19:37.712Z,4.87
2023-09-23T13:22:37.328Z,5.00
2023-09-23T13:25:37.320Z,5.80
2023-09-23T13:28:37.218Z,5.20
2023-09-23T13:31:37.389Z,5.00
2023-09-23T13:34:39.637Z,5.87
2023-09-23T13:37:37.566Z,4.60
2023-09-23T13:40:37.187Z,5.07
2023-09-23T13:43:37.233Z,4.00
2023-09-23T13:46:37.433Z,5.00
2023-09-23T13:49:37.808Z,5.00
2023-09-23T13:52:37.164Z,5.07
2023-09-23T13:55:37.100Z,5.00
2023-09-23T13:58:37.186Z,6.00
2023-09-23T14:01:37.432Z,3.87
2023-09-23T14:04:37.480Z,5.00
2023-09-23T14:07:37.169Z,4.00
2023-09-23T14:10:50.041Z,4.13
2023-09-23T14:13:37.190Z,4.80
2023-09-23T14:16:37.358Z,4.20
2023-09-23T14:19:37.799Z,4.67
2023-09-23T14:22:37.182Z,4.33
2023-09-23T14:25:37.350Z,5.13
2023-09-23T14:28:37.113Z,3.53
2023-09-23T14:31:37.535Z,4.67
2023-09-23T14:34:37.496Z,4.87
2023-09-23T14:37:37.310Z,4.80
2023-09-23T14:40:37.247Z,3.80
2023-09-23T14:43:37.198Z,5.00
2023-09-23T14:46:37.798Z,4.20
2023-09-23T14:49:37.698Z,4.67
2023-09-23T14:52:37.133Z,4.20
2023-09-23T14:55:38.840Z,4.27
2023-09-23T14:58:37.192Z,4.33
2023-09-23T15:01:40.196Z,4.13
2023-09-23T15:04:38.524Z,4.27
2023-09-23T15:07:37.377Z,4.87
2023-09-23T15:10:38.724Z,5.67
2023-09-23T15:13:37.225Z,6.00
2023-09-23T15:16:37.360Z,4.67
2023-09-23T15:19:37.656Z,5.20
2023-09-23T15:22:37.186Z,4.60
2023-09-23T15:25:37.378Z,4.07
2023-09-23T15:28:37.151Z,5.47
2023-09-23T15:31:37.422Z,4.40
2023-09-23T15:34:37.829Z,5.00
2023-09-23T15:37:37.143Z,5.33
2023-09-23T15:40:39.707Z,5.33
2023-09-23T15:43:37.184Z,4.87
2023-09-23T15:46:37.395Z,5.00
2023-09-23T15:49:42.328Z,4.53
2023-09-23T15:52:37.276Z,5.00
2023-09-23T15:55:37.169Z,5.93
2023-09-23T15:58:37.222Z,5.00
2023-09-23T16:01:37.403Z,5.40
2023-09-23T16:04:39.490Z,4.80
2023-09-23T16:07:37.174Z,4.47
2023-09-23T16:10:37.149Z,5.00
2023-09-23T16:13:37.226Z,4.33
2023-09-23T16:16:38.244Z,5.07
2023-09-23T16:19:39.008Z,8.47
2023-09-23T16:22:37.666Z,11.87
2023-09-23T16:25:37.561Z,22.20
2023-09-23T16:28:37.227Z,13.47
2023-09-23T16:31:37.819Z,12.00
2023-09-23T16:34:37.571Z,11.27
2023-09-23T16:37:37.348Z,7.80
2023-09-23T16:40:37.337Z,6.93
2023-09-23T16:43:37.413Z,5.93
2023-09-23T16:46:37.605Z,27.33
2023-09-23T16:49:37.980Z,37.07
2023-09-23T16:52:37.399Z,55.93
2023-09-23T16:55:37.431Z,24.80
2023-09-23T16:58:37.370Z,19.53
2023-09-23T17:01:37.830Z,17.87
2023-09-23T17:04:38.170Z,10.73
2023-09-23T17:07:37.406Z,10.00
2023-09-23T17:10:37.568Z,7.20
2023-09-23T17:13:39.548Z,7.53
2023-09-23T17:16:37.512Z,6.27
2023-09-23T17:19:38.090Z,6.00
2023-09-23T17:22:37.416Z,7.13
2023-09-23T17:25:37.541Z,5.67
2023-09-23T17:28:37.401Z,5.13
2023-09-23T17:31:37.626Z,7.00
2023-09-23T17:34:37.941Z,6.67
2023-09-23T17:37:37.234Z,5.80
2023-09-23T17:40:37.400Z,5.73
2023-09-23T17:43:37.338Z,6.47
2023-09-23T17:46:37.642Z,5.67
2023-09-23T17:49:37.633Z,6.07
2023-09-23T17:52:37.317Z,6.47
2023-09-23T17:55:37.348Z,6.53
2023-09-23T17:58:39.443Z,6.73
2023-09-23T18:01:38.128Z,5.33
2023-09-23T18:04:39.757Z,5.60
2023-09-23T18:07:37.393Z,6.47
2023-09-23T18:10:37.381Z,6.07
2023-09-23T18:13:37.504Z,7.53
2023-09-23T18:16:37.528Z,6.73
2023-09-23T18:19:38.126Z,6.00
2023-09-23T18:22:37.366Z,7.07
2023-09-23T18:25:37.838Z,6.00
2023-09-23T18:28:39.327Z,5.00
2023-09-23T18:31:37.861Z,5.53
2023-09-23T18:34:38.314Z,5.33
2023-09-23T18:37:37.704Z,5.53
2023-09-23T18:40:37.622Z,5.00
2023-09-23T18:43:37.443Z,6.00
2023-09-23T18:46:37.765Z,6.53
2023-09-23T18:49:51.643Z,4.60
2023-09-23T18:52:37.431Z,5.27
2023-09-23T18:55:37.498Z,5.00
2023-09-23T18:58:37.492Z,5.53
2023-09-23T19:01:37.902Z,5.13
2023-09-23T19:04:38.657Z,6.00
2023-09-23T19:07:38.300Z,6.07
2023-09-23T19:10:37.390Z,6.87
2023-09-23T19:13:37.273Z,6.60
2023-09-23T19:16:37.791Z,5.93
2023-09-23T19:19:37.773Z,5.20
2023-09-23T19:22:37.317Z,4.60
2023-09-23T19:25:37.330Z,4.93
2023-09-23T19:28:37.477Z,4.80
2023-09-23T19:31:37.577Z,4.47
2023-09-23T19:34:37.977Z,5.13
2023-09-23T19:37:37.892Z,5.27
2023-09-23T19:40:38.251Z,5.07
2023-09-23T19:43:38.750Z,5.27
2023-09-23T19:46:38.025Z,4.73
2023-09-23T19:49:38.151Z,5.33
2023-09-23T19:52:37.222Z,6.13
2023-09-23T19:55:37.123Z,5.07
2023-09-23T19:58:37.251Z,4.80
2023-09-23T20:01:40.077Z,3.20
2023-09-23T20:04:38.000Z,5.20
2023-09-23T20:07:37.285Z,4.00
2023-09-23T20:10:37.605Z,3.73
2023-09-23T20:13:37.291Z,4.07
2023-09-23T20:16:37.353Z,3.87
2023-09-23T20:19:37.759Z,3.93
2023-09-23T20:22:37.203Z,3.13
2023-09-23T20:25:37.269Z,2.67
2023-09-23T20:28:37.398Z,4.13
2023-09-23T20:31:45.155Z,4.27
2023-09-23T20:34:37.838Z,3.80
2023-09-23T20:37:37.337Z,4.47
2023-09-23T20:40:39.645Z,4.07
2023-09-23T20:43:37.212Z,3.53
2023-09-23T20:46:37.389Z,3.80
2023-09-23T20:49:37.388Z,3.93
2023-09-23T20:52:37.287Z,4.53
2023-09-23T20:55:37.234Z,4.20
2023-09-23T20:58:37.113Z,4.00
2023-09-23T21:01:37.265Z,4.87
2023-09-23T21:04:39.436Z,3.13
2023-09-23T21:07:38.314Z,4.00
2023-09-23T21:10:37.348Z,4.93
2023-09-23T21:13:37.169Z,4.20
2023-09-23T21:16:37.376Z,4.60
2023-09-23T21:19:37.546Z,4.00
2023-09-23T21:22:37.222Z,4.27
2023-09-23T21:25:37.271Z,4.33
2023-09-23T21:28:37.165Z,5.07
2023-09-23T21:31:37.428Z,5.00
2023-09-23T21:34:38.076Z,4.33
2023-09-23T21:37:37.346Z,5.00
2023-09-23T21:40:37.180Z,4.33
2023-09-23T21:43:37.107Z,4.53
2023-09-23T21:46:37.443Z,4.73
2023-09-23T21:49:37.407Z,5.00
2023-09-23T21:52:37.136Z,4.73
2023-09-23T21:55:37.243Z,4.80
2023-09-23T21:58:41.164Z,5.93
2023-09-23T22:01:37.470Z,5.93
2023-09-23T22:04:39.049Z,5.07
2023-09-23T22:07:37.308Z,5.20
2023-09-23T22:10:37.170Z,5.13
2023-09-23T22:13:37.062Z,6.00
2023-09-23T22:16:37.241Z,5.47
2023-09-23T22:19:37.468Z,5.60
2023-09-23T22:22:37.181Z,5.00
2023-09-23T22:25:37.228Z,6.00
2023-09-23T22:28:37.215Z,6.00
2023-09-23T22:31:37.491Z,5.80
2023-09-23T22:34:38.046Z,6.00
2023-09-23T22:37:37.184Z,6.67
2023-09-23T22:40:47.106Z,6.40
2023-09-23T22:43:37.053Z,6.33
2023-09-23T22:46:47.496Z,6.00
2023-09-23T22:49:37.600Z,6.00
2023-09-23T22:52:37.144Z,6.00
2023-09-23T22:55:37.278Z,6.00
2023-09-23T22:58:37.129Z,6.00
2023-09-23T23:01:38.295Z,6.40
2023-09-23T23:04:38.190Z,6.20
2023-09-23T23:07:39.927Z,6.33
2023-09-23T23:10:37.545Z,6.13
2023-09-23T23:13:40.730Z,6.00
2023-09-23T23:16:37.617Z,6.27
2023-09-23T23:19:37.522Z,7.80
2023-09-23T23:22:37.430Z,10.27
2023-09-23T23:25:37.478Z,10.07
2023-09-23T23:28:37.408Z,9.00
2023-09-23T23:31:38.435Z,8.53
2023-09-23T23:34:38.092Z,7.13
2023-09-23T23:37:37.405Z,7.87
2023-09-23T23:40:37.572Z,8.73
2023-09-23T23:43:37.232Z,7.60
2023-09-23T23:46:38.154Z,7.07
2023-09-23T23:49:38.154Z,6.60
2023-09-23T23:52:37.542Z,5.27
2023-09-23T23:55:37.671Z,6.20
2023-09-23T23:58:37.656Z,5.67
